Swinomish — WC5223 — position and weather

sailwx.info

Track history (hours):
 
Tides and Currents Weather Stations Pressure Air Temp Water Temp Dewpoint Dewpoint Depression Visibility Wind Speed Wind Dir Waves Ship Positions

Swinomish

Owner: DUNLAP TOWING CO, LA CONNER, WA. More information available from US FCC via Universal Licensing System and Coast Guard Vessel Documentation Center.

Last reported at 2017-Aug-16 21:31 UTC. Time now 2017-Aug-16 21:49 UTC.
Position N 48°37' W 122°38'.

Length 15 m; draft 3.5 m.

Type: Tug. MMSI: 366972050.

Date/timePositionNaut miles runAvg speedWind from/ knotsBaromVisibWave heightAir tempDewpointWater temp
2017-Aug-16 21:31N 48°37' W 122°38'711.8
2017-Aug-16 20:57N 48°32' W 122°34'12 2.6
2017-Aug-16 16:30N 48°20' W 122°32'9 9.5
2017-Aug-16 15:35N 48°12' W 122°33'210.8
2017-Aug-16 15:23N 48°09' W 122°33'510.2
2017-Aug-16 14:51N 48°05' W 122°27'410.6
2017-Aug-16 14:29N 48°03' W 122°23'510.8
2017-Aug-16 14:01N 48°00' W 122°16'2 4.6
2017-Aug-16 13:29N 47°59' W 122°13'0 0.0
2017-Aug-16 13:00N 47°59' W 122°13'0 0.0
2017-Aug-16 12:02N 47°59' W 122°13'0 0.0
2017-Aug-16 11:59N 47°59' W 122°13'0 0.0
2017-Aug-16 11:29N 47°59' W 122°13'0 0.0
2017-Aug-16 11:00N 47°59' W 122°13'0 0.0
2017-Aug-16 10:30N 47°59' W 122°13'0 0.0
2017-Aug-16 10:00N 47°59' W 122°13'0 0.0
2017-Aug-16 09:31N 47°59' W 122°13'0 0.0
2017-Aug-16 09:00N 47°59' W 122°13'0 0.0
2017-Aug-16 08:31N 47°59' W 122°13'0 0.0
2017-Aug-16 08:00N 47°59' W 122°13'0 0.0
2017-Aug-16 07:30N 47°59' W 122°13'0 0.0
2017-Aug-16 07:00N 47°59' W 122°13'0 0.0
2017-Aug-16 06:30N 47°59' W 122°13'0 0.0
2017-Aug-16 06:00N 47°59' W 122°13'0 0.0
2017-Aug-16 05:30N 47°59' W 122°13'0 0.0
2017-Aug-16 05:00N 47°59' W 122°13'0 0.0
2017-Aug-16 04:30N 47°59' W 122°13'0 0.0
2017-Aug-16 04:01N 47°59' W 122°13'0 0.0
2017-Aug-16 03:31N 47°59' W 122°13'0 0.0
2017-Aug-16 03:00N 47°59' W 122°13'0 0.3
2017-Aug-16 02:31N 47°59' W 122°13'0 0.2
2017-Aug-16 02:01N 47°59' W 122°13'0 0.3
2017-Aug-16 01:31N 47°59' W 122°13'1 1.5
2017-Aug-16 01:01N 47°58' W 122°14'1 1.5
2017-Aug-16 00:31N 47°58' W 122°15'1 2.3
2017-Aug-16 00:00N 47°58' W 122°17'1 2.2
2017-Aug-15 23:31N 47°58' W 122°18'1 1.7
2017-Aug-15 23:01N 47°57' W 122°19'1 1.7
2017-Aug-15 22:31N 47°56' W 122°19'1 1.8
2017-Aug-15 22:01N 47°55' W 122°20'1 1.7
2017-Aug-15 21:31N 47°54' W 122°20'1 1.6
2017-Aug-15 21:00N 47°54' W 122°21'1 1.6
2017-Aug-15 20:31N 47°53' W 122°22'1 1.7
2017-Aug-15 20:00N 47°53' W 122°23'1 1.7
2017-Aug-15 19:31N 47°53' W 122°24'1 1.6
2017-Aug-15 19:01N 47°53' W 122°25'1 1.9
2017-Aug-15 18:31N 47°53' W 122°27'1 2.4
2017-Aug-15 18:00N 47°54' W 122°28'1 2.3
2017-Aug-15 17:30N 47°54' W 122°30'1 2.9
2017-Aug-15 17:01N 47°55' W 122°32'2 3.9
2017-Aug-15 16:30N 47°56' W 122°34'2 3.8
2017-Aug-15 15:57N 47°57' W 122°37'1 2.9
2017-Aug-15 15:27N 47°58' W 122°38'8 2.4
2017-Aug-15 12:10N 48°06' W 122°41'1 2.2
2017-Aug-15 11:54N 48°06' W 122°42'1 2.1
2017-Aug-15 11:30N 48°06' W 122°43'1 1.6
2017-Aug-15 11:00N 48°06' W 122°44'1 1.0
2017-Aug-15 09:49N 48°06' W 122°46'0 0.0
2017-Aug-15 07:04N 48°06' W 122°46'0 0.0
2017-Aug-15 06:40N 48°06' W 122°46'0 0.0
2017-Aug-15 06:08N 48°06' W 122°46'0 0.0
2017-Aug-15 05:59N 48°06' W 122°46'0 0.0
2017-Aug-15 05:30N 48°06' W 122°46'0 0.0
2017-Aug-15 02:24N 48°06' W 122°46'0 0.1
2017-Aug-15 01:58N 48°06' W 122°46'1 1.4
2017-Aug-15 01:29N 48°06' W 122°45'1 2.2
2017-Aug-15 01:00N 48°07' W 122°44'3 2.3
2017-Aug-14 23:36N 48°09' W 122°48'1 2.7
2017-Aug-14 23:09N 48°09' W 122°50'1 2.3
2017-Aug-14 22:55N 48°08' W 122°51'1 2.3
2017-Aug-14 22:28N 48°08' W 122°52'1 1.7
2017-Aug-14 21:54N 48°07' W 122°53'1 2.0
2017-Aug-14 21:30N 48°07' W 122°54'1 1.9
2017-Aug-14 21:00N 48°07' W 122°55'1 1.5
2017-Aug-14 20:29N 48°06' W 122°56'1 1.0
2017-Aug-14 20:00N 48°07' W 122°57'0 1.0
2017-Aug-14 19:30N 48°07' W 122°58'1 1.4
2017-Aug-14 18:59N 48°07' W 122°59'1 2.2
2017-Aug-14 18:29N 48°08' W 122°60'1 2.2
2017-Aug-14 17:58N 48°09' W 123°01'1 2.1
2017-Aug-14 17:30N 48°09' W 123°02'1 2.0
2017-Aug-14 16:58N 48°10' W 123°03'1 2.2
2017-Aug-14 16:27N 48°11' W 123°05'1 2.5
2017-Aug-14 16:00N 48°11' W 123°06'2 3.0
2017-Aug-14 15:30N 48°11' W 123°08'1 3.0
2017-Aug-14 15:00N 48°10' W 123°10'2 3.6
2017-Aug-14 14:30N 48°09' W 123°12'2 3.5
2017-Aug-14 14:00N 48°08' W 123°15'2 3.6
2017-Aug-14 13:30N 48°08' W 123°17'2 3.5
2017-Aug-14 13:00N 48°08' W 123°20'2 3.0
2017-Aug-14 12:30N 48°08' W 123°22'1 2.3
2017-Aug-14 12:00N 48°08' W 123°24'1 2.1
2017-Aug-14 11:30N 48°08' W 123°25'0 0.6
2017-Aug-14 11:00N 48°08' W 123°26'1 1.8
2017-Aug-14 10:30N 48°08' W 123°27'0 0.4
2017-Aug-14 10:00N 48°08' W 123°27'0 0.1
2017-Aug-14 09:30N 48°08' W 123°27'2 3.8
2017-Aug-14 09:01N 48°08' W 123°25'2 3.7
2017-Aug-14 08:30N 48°08' W 123°27'0 0.0
2017-Aug-14 08:00N 48°08' W 123°27'0 0.0
2017-Aug-14 07:30N 48°08' W 123°27'0 0.0
2017-Aug-14 07:00N 48°08' W 123°27'0 0.0
2017-Aug-14 06:31N 48°08' W 123°27'0 0.0
2017-Aug-14 06:00N 48°08' W 123°27'0 0.0
2017-Aug-14 05:30N 48°08' W 123°27'0 0.0
2017-Aug-14 05:01N 48°08' W 123°27'0 0.0
2017-Aug-14 04:30N 48°08' W 123°27'0 0.0
2017-Aug-14 04:00N 48°08' W 123°27'0 0.0
2017-Aug-14 03:30N 48°08' W 123°27'0 0.0
2017-Aug-14 03:00N 48°08' W 123°27'0 0.0
2017-Aug-14 02:30N 48°08' W 123°27'0 0.0
2017-Aug-14 02:00N 48°08' W 123°27'0 0.0
2017-Aug-14 01:30N 48°08' W 123°27'0 0.0
2017-Aug-14 01:00N 48°08' W 123°27'0 0.0
2017-Aug-14 00:30N 48°08' W 123°27'0 0.0
2017-Aug-14 00:00N 48°08' W 123°27'0 0.0
2017-Aug-13 23:30N 48°08' W 123°27'0 0.0
2017-Aug-13 23:01N 48°08' W 123°27'0 0.0
2017-Aug-13 22:31N 48°08' W 123°27'0 0.0
2017-Aug-13 22:00N 48°08' W 123°27'0 0.0
2017-Aug-13 21:30N 48°08' W 123°27'0 0.0
2017-Aug-13 21:01N 48°08' W 123°27'0 0.0
2017-Aug-13 20:30N 48°08' W 123°27'0 0.0
2017-Aug-13 20:00N 48°08' W 123°27'0 0.1
2017-Aug-13 19:30N 48°08' W 123°27'0 0.1
2017-Aug-13 19:00N 48°08' W 123°27'0 0.0
2017-Aug-13 18:30N 48°08' W 123°27'0 0.0
2017-Aug-13 18:01N 48°08' W 123°27'0 0.0
2017-Aug-13 17:30N 48°08' W 123°27'0 0.1
2017-Aug-13 17:00N 48°08' W 123°27'0 0.0
2017-Aug-13 16:30N 48°08' W 123°27'0 0.0
2017-Aug-13 16:00N 48°08' W 123°27'0 0.1
2017-Aug-13 15:30N 48°08' W 123°28'0 0.0
2017-Aug-13 15:00N 48°08' W 123°28'0 0.1
2017-Aug-13 14:30N 48°08' W 123°27'0 0.0
2017-Aug-13 14:01N 48°08' W 123°27'0 0.0
2017-Aug-13 13:30N 48°08' W 123°27'0 0.1
2017-Aug-13 13:00N 48°08' W 123°28'0 0.0
2017-Aug-13 12:30N 48°08' W 123°28'0 0.1
2017-Aug-13 12:01N 48°08' W 123°27'0 0.1
2017-Aug-13 11:30N 48°08' W 123°27'0 0.1
2017-Aug-13 11:00N 48°08' W 123°27'0 0.0
2017-Aug-13 10:30N 48°08' W 123°27'0 0.1
2017-Aug-13 10:00N 48°08' W 123°27'0 0.0
2017-Aug-13 09:30N 48°08' W 123°27'0 0.0
2017-Aug-13 09:00N 48°08' W 123°27'0 0.1
2017-Aug-13 08:30N 48°08' W 123°27'0 0.0
2017-Aug-13 08:00N 48°08' W 123°27'0 0.1
2017-Aug-13 07:30N 48°08' W 123°27'0 0.0
2017-Aug-13 07:00N 48°08' W 123°27'0 0.1
2017-Aug-13 06:30N 48°08' W 123°27'0 0.0
2017-Aug-13 06:00N 48°08' W 123°27'0 0.0
2017-Aug-13 05:30N 48°08' W 123°27'0 0.0
2017-Aug-13 05:00N 48°08' W 123°27'0 0.0
2017-Aug-13 04:30N 48°08' W 123°27'0 0.1
2017-Aug-13 04:00N 48°08' W 123°27'0 0.0
2017-Aug-13 03:30N 48°08' W 123°27'0 0.0
2017-Aug-13 03:00N 48°08' W 123°27'0 0.0
2017-Aug-13 02:30N 48°08' W 123°27'0 0.0
2017-Aug-13 02:00N 48°08' W 123°27'0 0.0
2017-Aug-13 01:30N 48°08' W 123°27'0 0.0
2017-Aug-13 01:01N 48°08' W 123°27'0 0.0
2017-Aug-13 00:30N 48°08' W 123°27'0 0.0
2017-Aug-13 00:00N 48°08' W 123°27'0 0.0
2017-Aug-12 23:30N 48°08' W 123°27'0 0.1
2017-Aug-12 23:00N 48°08' W 123°27'0 0.2
2017-Aug-12 22:30N 48°08' W 123°27'0 0.1
2017-Aug-12 22:01N 48°08' W 123°27'0 0.2
2017-Aug-12 21:30N 48°08' W 123°27'0 0.3
2017-Aug-12 21:01N 48°08' W 123°27'0 0.1
2017-Aug-12 20:30N 48°08' W 123°27'0 0.3
2017-Aug-12 20:00N 48°08' W 123°27'0 0.1
2017-Aug-12 19:30N 48°08' W 123°27'0 0.3
2017-Aug-12 19:00N 48°08' W 123°28'1 2.7
2017-Aug-12 18:30N 48°08' W 123°26'4 7.3
2017-Aug-12 18:00N 48°08' W 123°20'4 7.8
2017-Aug-12 17:31N 48°09' W 123°14'4 7.8
2017-Aug-12 17:00N 48°11' W 123°09'3 6.6
2017-Aug-12 16:29N 48°11' W 123°04'4 7.1
2017-Aug-12 15:58N 48°10' W 122°59'3 7.0
2017-Aug-12 15:29N 48°09' W 122°54'14 7.4
2017-Aug-12 13:32N 47°60' W 122°38'0 3.1
2017-Aug-12 13:24N 47°59' W 122°37'0 0.2
2017-Aug-12 12:51N 47°59' W 122°37'2 6.2
2017-Aug-12 12:30N 47°57' W 122°36'3 6.4
2017-Aug-12 12:00N 47°55' W 122°32'3 6.9
2017-Aug-12 11:30N 47°54' W 122°28'4 7.1
2017-Aug-12 11:00N 47°53' W 122°23'4 8.0
2017-Aug-12 10:30N 47°57' W 122°20'4 7.1
2017-Aug-12 10:00N 47°58' W 122°15'1 2.5
2017-Aug-12 09:30N 47°59' W 122°13'4 7.8
2017-Aug-12 09:00N 47°57' W 122°18'5 9.1
2017-Aug-12 08:30N 47°54' W 122°22'4 8.8
2017-Aug-12 08:00N 47°54' W 122°29'4 8.4
2017-Aug-12 07:29N 47°57' W 122°34'11 7.4
2017-Aug-12 06:00N 48°06' W 122°43'4 3.2
2017-Aug-12 04:52N 48°05' W 122°48'0 0.3
2017-Aug-12 04:17N 48°05' W 122°48'1 1.9
2017-Aug-12 03:59N 48°05' W 122°47'4 5.1
2017-Aug-12 03:18N 48°07' W 122°42'8 6.2
2017-Aug-12 02:03N 47°59' W 122°38'0 4.6
2017-Aug-12 01:59N 47°59' W 122°38'2 4.8
2017-Aug-12 01:30N 47°58' W 122°35'2 4.6
2017-Aug-12 01:00N 47°57' W 122°32'3 5.7
2017-Aug-12 00:30N 47°55' W 122°28'3 5.2
2017-Aug-12 00:00N 47°54' W 122°25'3 5.5
2017-Aug-11 23:30N 47°55' W 122°22'3 7.0
2017-Aug-11 23:00N 47°58' W 122°19'3 6.3
2017-Aug-11 22:30N 47°59' W 122°15'1 2.3
2017-Aug-11 22:00N 47°59' W 122°13'0 0.2
2017-Aug-11 21:30N 47°59' W 122°13'1 1.7
2017-Aug-11 21:00N 47°58' W 122°14'1 2.4
2017-Aug-11 20:30N 47°58' W 122°16'1 2.7
2017-Aug-11 20:00N 47°58' W 122°18'1 2.4
2017-Aug-11 19:30N 47°57' W 122°19'1 2.3
2017-Aug-11 19:00N 47°56' W 122°20'1 2.2
2017-Aug-11 18:30N 47°55' W 122°20'1 2.1
2017-Aug-11 18:00N 47°54' W 122°21'1 1.9
2017-Aug-11 17:30N 47°53' W 122°22'1 2.0
2017-Aug-11 17:00N 47°52' W 122°22'1 2.5
2017-Aug-11 16:30N 47°51' W 122°23'1 2.7
2017-Aug-11 16:00N 47°50' W 122°24'2 3.3
2017-Aug-11 15:30N 47°48' W 122°25'2 3.1
2017-Aug-11 15:00N 47°47' W 122°25'1 2.7
2017-Aug-11 14:30N 47°45' W 122°25'3 2.5
2017-Aug-11 13:30N 47°43' W 122°26'1 2.6
2017-Aug-11 13:00N 47°42' W 122°28'1 2.6
2017-Aug-11 12:30N 47°41' W 122°29'1 2.7
2017-Aug-11 12:00N 47°40' W 122°29'1 2.7
2017-Aug-11 11:30N 47°38' W 122°29'1 2.8
2017-Aug-11 11:01N 47°37' W 122°29'1 2.6
2017-Aug-11 10:30N 47°36' W 122°28'1 2.7
2017-Aug-11 10:00N 47°34' W 122°28'1 2.7
2017-Aug-11 09:30N 47°33' W 122°28'2 3.3
2017-Aug-11 09:00N 47°31' W 122°29'2 4.1
2017-Aug-11 08:30N 47°30' W 122°30'2 4.0
2017-Aug-11 08:00N 47°28' W 122°31'2 4.0
2017-Aug-11 07:30N 47°26' W 122°31'2 4.1
2017-Aug-11 07:00N 47°24' W 122°32'2 3.9
2017-Aug-11 06:30N 47°22' W 122°32'2 3.8
2017-Aug-11 06:00N 47°20' W 122°33'3 5.0
2017-Aug-11 05:27N 47°17' W 122°32'3 5.5
2017-Aug-11 05:00N 47°15' W 122°34'3 4.0
2017-Aug-11 04:23N 47°13' W 122°36'3 2.9
2017-Aug-11 03:18N 47°14' W 122°40'1 0.2
2017-Aug-10 21:23N 47°14' W 122°39'1 2.6
2017-Aug-10 20:54N 47°12' W 122°38'6 2.9
2017-Aug-10 18:42N 47°10' W 122°47'1 4.1
2017-Aug-10 18:30N 47°11' W 122°48'8 1.8
2017-Aug-10 14:09N 47°05' W 122°55'1 1.4
2017-Aug-10 13:17N 47°06' W 122°55'12 0.9
2017-Aug-09 23:56N 47°11' W 122°39'1 2.0
2017-Aug-09 23:29N 47°12' W 122°38'1 2.1
2017-Aug-09 23:00N 47°12' W 122°37'2 3.3
2017-Aug-09 22:30N 47°13' W 122°35'2 4.2
2017-Aug-09 22:00N 47°15' W 122°34'2 4.5
2017-Aug-09 21:29N 47°17' W 122°32'1 2.7
2017-Aug-09 21:00N 47°18' W 122°33'1 1.5
2017-Aug-09 20:30N 47°19' W 122°33'1 2.0
2017-Aug-09 20:00N 47°19' W 122°32'1 1.3
2017-Aug-09 19:30N 47°19' W 122°31'1 1.3
2017-Aug-09 19:00N 47°19' W 122°30'1 1.5
2017-Aug-09 18:30N 47°19' W 122°29'1 1.2
2017-Aug-09 18:00N 47°19' W 122°28'1 1.2
2017-Aug-09 17:30N 47°20' W 122°28'1 1.1
2017-Aug-09 17:00N 47°20' W 122°27'0 0.8
2017-Aug-09 16:30N 47°21' W 122°27'0 0.8
2017-Aug-09 16:00N 47°21' W 122°27'0 0.9
2017-Aug-09 15:30N 47°21' W 122°26'1 1.1
2017-Aug-09 15:00N 47°22' W 122°25'1 1.1
2017-Aug-09 14:30N 47°22' W 122°25'1 1.1
2017-Aug-09 14:00N 47°22' W 122°24'1 1.1
2017-Aug-09 13:30N 47°22' W 122°23'1 1.1
2017-Aug-09 13:00N 47°23' W 122°23'1 1.5
2017-Aug-09 12:30N 47°23' W 122°22'1 1.4
2017-Aug-09 12:00N 47°24' W 122°23'1 1.3
2017-Aug-09 11:30N 47°24' W 122°23'1 1.5
2017-Aug-09 11:00N 47°25' W 122°24'1 1.6
2017-Aug-09 10:30N 47°25' W 122°25'1 1.4
2017-Aug-09 10:00N 47°26' W 122°25'1 1.5
2017-Aug-09 09:30N 47°27' W 122°26'1 1.8
2017-Aug-09 09:00N 47°28' W 122°26'1 1.2
2017-Aug-09 08:30N 47°28' W 122°26'1 1.3
2017-Aug-09 08:00N 47°29' W 122°26'0 1.0
2017-Aug-09 07:30N 47°29' W 122°26'1 1.1
2017-Aug-09 07:00N 47°30' W 122°27'1 1.9
2017-Aug-09 06:30N 47°31' W 122°27'1 1.5
2017-Aug-09 06:00N 47°31' W 122°28'0 0.7
2017-Aug-09 05:30N 47°32' W 122°28'1 1.0
2017-Aug-09 05:00N 47°32' W 122°28'1 1.2
2017-Aug-09 04:30N 47°33' W 122°28'1 1.3
2017-Aug-09 04:00N 47°33' W 122°28'1 1.4
2017-Aug-09 03:30N 47°34' W 122°28'1 1.5
2017-Aug-09 03:00N 47°35' W 122°28'1 1.5
2017-Aug-09 02:30N 47°36' W 122°28'1 1.5
2017-Aug-09 02:00N 47°36' W 122°29'1 1.4
2017-Aug-09 01:30N 47°37' W 122°29'1 1.6
2017-Aug-09 01:00N 47°38' W 122°29'1 1.3
2017-Aug-09 00:30N 47°39' W 122°29'1 1.6
2017-Aug-09 00:00N 47°39' W 122°29'1 1.8
2017-Aug-08 23:30N 47°40' W 122°29'1 1.8
2017-Aug-08 23:00N 47°41' W 122°29'1 1.9
2017-Aug-08 22:30N 47°42' W 122°29'1 2.1
2017-Aug-08 22:00N 47°43' W 122°29'1 2.2
2017-Aug-08 21:30N 47°44' W 122°28'1 2.0
2017-Aug-08 21:00N 47°45' W 122°27'1 1.5
2017-Aug-08 20:30N 47°45' W 122°26'1 1.4
2017-Aug-08 20:00N 47°46' W 122°25'1 1.2
2017-Aug-08 19:30N 47°46' W 122°25'1 1.0
2017-Aug-08 19:00N 47°47' W 122°25'0 0.6
2017-Aug-08 18:30N 47°47' W 122°25'0 0.4
2017-Aug-08 18:00N 47°47' W 122°25'0 0.5
2017-Aug-08 17:30N 47°47' W 122°25'0 0.4
2017-Aug-08 17:00N 47°48' W 122°25'0 0.8
2017-Aug-08 16:30N 47°48' W 122°25'1 1.4
2017-Aug-08 16:00N 47°49' W 122°25'1 1.3
2017-Aug-08 15:30N 47°49' W 122°24'1 1.3
2017-Aug-08 15:00N 47°50' W 122°24'1 1.4
2017-Aug-08 14:30N 47°50' W 122°23'1 1.5
2017-Aug-08 14:00N 47°51' W 122°22'1 1.6
2017-Aug-08 13:30N 47°52' W 122°22'1 1.8
2017-Aug-08 13:00N 47°53' W 122°21'1 2.0
2017-Aug-08 12:30N 47°54' W 122°21'1 1.9
2017-Aug-08 12:00N 47°55' W 122°21'1 1.7
2017-Aug-08 11:30N 47°55' W 122°20'1 1.8
2017-Aug-08 11:00N 47°56' W 122°20'1 2.0
2017-Aug-08 10:30N 47°57' W 122°19'1 1.7
2017-Aug-08 10:00N 47°58' W 122°18'1 1.7
2017-Aug-08 09:28N 47°58' W 122°17'1 1.5
2017-Aug-08 09:00N 47°58' W 122°16'1 1.5
2017-Aug-08 08:30N 47°58' W 122°15'0 0.2
2017-Aug-08 08:00N 47°58' W 122°15'0 0.2
2017-Aug-08 07:29N 47°58' W 122°15'0 0.2
2017-Aug-08 07:00N 47°58' W 122°15'0 0.2
2017-Aug-08 06:30N 47°58' W 122°15'1 1.5
2017-Aug-08 06:00N 47°58' W 122°16'0 0.8
2017-Aug-08 05:30N 47°58' W 122°16'1 1.1
2017-Aug-08 05:00N 47°59' W 122°16'1 1.4
2017-Aug-08 04:30N 47°60' W 122°17'1 2.1
2017-Aug-08 04:00N 48°01' W 122°17'1 2.3
2017-Aug-08 03:30N 48°02' W 122°18'1 2.3
2017-Aug-08 02:54N 48°02' W 122°20'1 2.3
2017-Aug-08 02:29N 48°03' W 122°22'1 2.2
2017-Aug-08 02:00N 48°03' W 122°23'1 2.0
2017-Aug-08 01:28N 48°04' W 122°24'1 2.0
2017-Aug-08 00:59N 48°04' W 122°25'3 1.8
2017-Aug-07 23:20N 48°06' W 122°29'1 1.6
2017-Aug-07 22:53N 48°07' W 122°30'8 1.7
2017-Aug-07 18:06N 48°15' W 122°33'0 2.3
2017-Aug-07 18:00N 48°15' W 122°33'1 2.6
2017-Aug-07 17:30N 48°16' W 122°32'1 2.6
2017-Aug-07 16:59N 48°17' W 122°31'1 2.6
2017-Aug-07 16:27N 48°18' W 122°30'1 2.5
2017-Aug-07 15:57N 48°19' W 122°31'1 2.1
2017-Aug-07 15:22N 48°20' W 122°32'1 2.0
2017-Aug-07 14:57N 48°21' W 122°33'1 1.5
2017-Aug-07 14:30N 48°21' W 122°33'1 1.4
2017-Aug-07 13:59N 48°22' W 122°33'1 1.3
2017-Aug-07 13:30N 48°22' W 122°32'0 0.1
2017-Aug-07 13:00N 48°22' W 122°32'0 0.0
2017-Aug-07 12:27N 48°22' W 122°32'0 0.0
2017-Aug-07 12:00N 48°22' W 122°32'0 0.0
2017-Aug-07 11:30N 48°22' W 122°32'2 0.2
2017-Aug-07 01:46N 48°24' W 122°30'  
Track history (hours):
 
Tides and Currents Weather Stations Pressure Air Temp Water Temp Dewpoint Dewpoint Depression Visibility Wind Speed Wind Dir Waves Ship Positions

Swinomish

Owner: DUNLAP TOWING CO, LA CONNER, WA. More information available from US FCC via Universal Licensing System and Coast Guard Vessel Documentation Center.

Last reported at 2017-Aug-16 21:31 UTC. Time now 2017-Aug-16 21:49 UTC.
Position N 48°37' W 122°38'.

Length 15 m; draft 3.5 m.

Type: Tug. MMSI: 366972050.

Date/timePositionNaut miles runAvg speedWind from/ knotsBaromVisibWave heightAir tempDewpointWater temp
2017-Aug-16 21:31N 48°37' W 122°38'711.8
2017-Aug-16 20:57N 48°32' W 122°34'12 2.6
2017-Aug-16 16:30N 48°20' W 122°32'9 9.5
2017-Aug-16 15:35N 48°12' W 122°33'210.8
2017-Aug-16 15:23N 48°09' W 122°33'510.2
2017-Aug-16 14:51N 48°05' W 122°27'410.6
2017-Aug-16 14:29N 48°03' W 122°23'510.8
2017-Aug-16 14:01N 48°00' W 122°16'2 4.6
2017-Aug-16 13:29N 47°59' W 122°13'0 0.0
2017-Aug-16 13:00N 47°59' W 122°13'0 0.0
2017-Aug-16 12:02N 47°59' W 122°13'0 0.0
2017-Aug-16 11:59N 47°59' W 122°13'0 0.0
2017-Aug-16 11:29N 47°59' W 122°13'0 0.0
2017-Aug-16 11:00N 47°59' W 122°13'0 0.0
2017-Aug-16 10:30N 47°59' W 122°13'0 0.0
2017-Aug-16 10:00N 47°59' W 122°13'0 0.0
2017-Aug-16 09:31N 47°59' W 122°13'0 0.0
2017-Aug-16 09:00N 47°59' W 122°13'0 0.0
2017-Aug-16 08:31N 47°59' W 122°13'0 0.0
2017-Aug-16 08:00N 47°59' W 122°13'0 0.0
2017-Aug-16 07:30N 47°59' W 122°13'0 0.0
2017-Aug-16 07:00N 47°59' W 122°13'0 0.0
2017-Aug-16 06:30N 47°59' W 122°13'0 0.0
2017-Aug-16 06:00N 47°59' W 122°13'0 0.0
2017-Aug-16 05:30N 47°59' W 122°13'0 0.0
2017-Aug-16 05:00N 47°59' W 122°13'0 0.0
2017-Aug-16 04:30N 47°59' W 122°13'0 0.0
2017-Aug-16 04:01N 47°59' W 122°13'0 0.0
2017-Aug-16 03:31N 47°59' W 122°13'0 0.0
2017-Aug-16 03:00N 47°59' W 122°13'0 0.3
2017-Aug-16 02:31N 47°59' W 122°13'0 0.2
2017-Aug-16 02:01N 47°59' W 122°13'0 0.3
2017-Aug-16 01:31N 47°59' W 122°13'1 1.5
2017-Aug-16 01:01N 47°58' W 122°14'1 1.5
2017-Aug-16 00:31N 47°58' W 122°15'1 2.3
2017-Aug-16 00:00N 47°58' W 122°17'1 2.2
2017-Aug-15 23:31N 47°58' W 122°18'1 1.7
2017-Aug-15 23:01N 47°57' W 122°19'1 1.7
2017-Aug-15 22:31N 47°56' W 122°19'1 1.8
2017-Aug-15 22:01N 47°55' W 122°20'1 1.7
2017-Aug-15 21:31N 47°54' W 122°20'1 1.6
2017-Aug-15 21:00N 47°54' W 122°21'1 1.6
2017-Aug-15 20:31N 47°53' W 122°22'1 1.7
2017-Aug-15 20:00N 47°53' W 122°23'1 1.7
2017-Aug-15 19:31N 47°53' W 122°24'1 1.6
2017-Aug-15 19:01N 47°53' W 122°25'1 1.9
2017-Aug-15 18:31N 47°53' W 122°27'1 2.4
2017-Aug-15 18:00N 47°54' W 122°28'1 2.3
2017-Aug-15 17:30N 47°54' W 122°30'1 2.9
2017-Aug-15 17:01N 47°55' W 122°32'2 3.9
2017-Aug-15 16:30N 47°56' W 122°34'2 3.8
2017-Aug-15 15:57N 47°57' W 122°37'1 2.9
2017-Aug-15 15:27N 47°58' W 122°38'8 2.4
2017-Aug-15 12:10N 48°06' W 122°41'1 2.2
2017-Aug-15 11:54N 48°06' W 122°42'1 2.1
2017-Aug-15 11:30N 48°06' W 122°43'1 1.6
2017-Aug-15 11:00N 48°06' W 122°44'1 1.0
2017-Aug-15 09:49N 48°06' W 122°46'0 0.0
2017-Aug-15 07:04N 48°06' W 122°46'0 0.0
2017-Aug-15 06:40N 48°06' W 122°46'0 0.0
2017-Aug-15 06:08N 48°06' W 122°46'0 0.0
2017-Aug-15 05:59N 48°06' W 122°46'0 0.0
2017-Aug-15 05:30N 48°06' W 122°46'0 0.0
2017-Aug-15 02:24N 48°06' W 122°46'0 0.1
2017-Aug-15 01:58N 48°06' W 122°46'1 1.4
2017-Aug-15 01:29N 48°06' W 122°45'1 2.2
2017-Aug-15 01:00N 48°07' W 122°44'3 2.3
2017-Aug-14 23:36N 48°09' W 122°48'1 2.7
2017-Aug-14 23:09N 48°09' W 122°50'1 2.3
2017-Aug-14 22:55N 48°08' W 122°51'1 2.3
2017-Aug-14 22:28N 48°08' W 122°52'1 1.7
2017-Aug-14 21:54N 48°07' W 122°53'1 2.0
2017-Aug-14 21:30N 48°07' W 122°54'1 1.9
2017-Aug-14 21:00N 48°07' W 122°55'1 1.5
2017-Aug-14 20:29N 48°06' W 122°56'1 1.0
2017-Aug-14 20:00N 48°07' W 122°57'0 1.0
2017-Aug-14 19:30N 48°07' W 122°58'1 1.4
2017-Aug-14 18:59N 48°07' W 122°59'1 2.2
2017-Aug-14 18:29N 48°08' W 122°60'1 2.2
2017-Aug-14 17:58N 48°09' W 123°01'1 2.1
2017-Aug-14 17:30N 48°09' W 123°02'1 2.0
2017-Aug-14 16:58N 48°10' W 123°03'1 2.2
2017-Aug-14 16:27N 48°11' W 123°05'1 2.5
2017-Aug-14 16:00N 48°11' W 123°06'2 3.0
2017-Aug-14 15:30N 48°11' W 123°08'1 3.0
2017-Aug-14 15:00N 48°10' W 123°10'2 3.6
2017-Aug-14 14:30N 48°09' W 123°12'2 3.5
2017-Aug-14 14:00N 48°08' W 123°15'2 3.6
2017-Aug-14 13:30N 48°08' W 123°17'2 3.5
2017-Aug-14 13:00N 48°08' W 123°20'2 3.0
2017-Aug-14 12:30N 48°08' W 123°22'1 2.3
2017-Aug-14 12:00N 48°08' W 123°24'1 2.1
2017-Aug-14 11:30N 48°08' W 123°25'0 0.6
2017-Aug-14 11:00N 48°08' W 123°26'1 1.8
2017-Aug-14 10:30N 48°08' W 123°27'0 0.4
2017-Aug-14 10:00N 48°08' W 123°27'0 0.1
2017-Aug-14 09:30N 48°08' W 123°27'2 3.8
2017-Aug-14 09:01N 48°08' W 123°25'2 3.7
2017-Aug-14 08:30N 48°08' W 123°27'0 0.0
2017-Aug-14 08:00N 48°08' W 123°27'0 0.0
2017-Aug-14 07:30N 48°08' W 123°27'0 0.0
2017-Aug-14 07:00N 48°08' W 123°27'0 0.0
2017-Aug-14 06:31N 48°08' W 123°27'0 0.0
2017-Aug-14 06:00N 48°08' W 123°27'0 0.0
2017-Aug-14 05:30N 48°08' W 123°27'0 0.0
2017-Aug-14 05:01N 48°08' W 123°27'0 0.0
2017-Aug-14 04:30N 48°08' W 123°27'0 0.0
2017-Aug-14 04:00N 48°08' W 123°27'0 0.0
2017-Aug-14 03:30N 48°08' W 123°27'0 0.0
2017-Aug-14 03:00N 48°08' W 123°27'0 0.0
2017-Aug-14 02:30N 48°08' W 123°27'0 0.0
2017-Aug-14 02:00N 48°08' W 123°27'0 0.0
2017-Aug-14 01:30N 48°08' W 123°27'0 0.0
2017-Aug-14 01:00N 48°08' W 123°27'0 0.0
2017-Aug-14 00:30N 48°08' W 123°27'0 0.0
2017-Aug-14 00:00N 48°08' W 123°27'0 0.0
2017-Aug-13 23:30N 48°08' W 123°27'0 0.0
2017-Aug-13 23:01N 48°08' W 123°27'0 0.0
2017-Aug-13 22:31N 48°08' W 123°27'0 0.0
2017-Aug-13 22:00N 48°08' W 123°27'0 0.0
2017-Aug-13 21:30N 48°08' W 123°27'0 0.0
2017-Aug-13 21:01N 48°08' W 123°27'0 0.0
2017-Aug-13 20:30N 48°08' W 123°27'0 0.0
2017-Aug-13 20:00N 48°08' W 123°27'0 0.1
2017-Aug-13 19:30N 48°08' W 123°27'0 0.1
2017-Aug-13 19:00N 48°08' W 123°27'0 0.0
2017-Aug-13 18:30N 48°08' W 123°27'0 0.0
2017-Aug-13 18:01N 48°08' W 123°27'0 0.0
2017-Aug-13 17:30N 48°08' W 123°27'0 0.1
2017-Aug-13 17:00N 48°08' W 123°27'0 0.0
2017-Aug-13 16:30N 48°08' W 123°27'0 0.0
2017-Aug-13 16:00N 48°08' W 123°27'0 0.1
2017-Aug-13 15:30N 48°08' W 123°28'0 0.0
2017-Aug-13 15:00N 48°08' W 123°28'0 0.1
2017-Aug-13 14:30N 48°08' W 123°27'0 0.0
2017-Aug-13 14:01N 48°08' W 123°27'0 0.0
2017-Aug-13 13:30N 48°08' W 123°27'0 0.1
2017-Aug-13 13:00N 48°08' W 123°28'0 0.0
2017-Aug-13 12:30N 48°08' W 123°28'0 0.1
2017-Aug-13 12:01N 48°08' W 123°27'0 0.1
2017-Aug-13 11:30N 48°08' W 123°27'0 0.1
2017-Aug-13 11:00N 48°08' W 123°27'0 0.0
2017-Aug-13 10:30N 48°08' W 123°27'0 0.1
2017-Aug-13 10:00N 48°08' W 123°27'0 0.0
2017-Aug-13 09:30N 48°08' W 123°27'0 0.0
2017-Aug-13 09:00N 48°08' W 123°27'0 0.1
2017-Aug-13 08:30N 48°08' W 123°27'0 0.0
2017-Aug-13 08:00N 48°08' W 123°27'0 0.1
2017-Aug-13 07:30N 48°08' W 123°27'0 0.0
2017-Aug-13 07:00N 48°08' W 123°27'0 0.1
2017-Aug-13 06:30N 48°08' W 123°27'0 0.0
2017-Aug-13 06:00N 48°08' W 123°27'0 0.0
2017-Aug-13 05:30N 48°08' W 123°27'0 0.0
2017-Aug-13 05:00N 48°08' W 123°27'0 0.0
2017-Aug-13 04:30N 48°08' W 123°27'0 0.1
2017-Aug-13 04:00N 48°08' W 123°27'0 0.0
2017-Aug-13 03:30N 48°08' W 123°27'0 0.0
2017-Aug-13 03:00N 48°08' W 123°27'0 0.0
2017-Aug-13 02:30N 48°08' W 123°27'0 0.0
2017-Aug-13 02:00N 48°08' W 123°27'0 0.0
2017-Aug-13 01:30N 48°08' W 123°27'0 0.0
2017-Aug-13 01:01N 48°08' W 123°27'0 0.0
2017-Aug-13 00:30N 48°08' W 123°27'0 0.0
2017-Aug-13 00:00N 48°08' W 123°27'0 0.0
2017-Aug-12 23:30N 48°08' W 123°27'0 0.1
2017-Aug-12 23:00N 48°08' W 123°27'0 0.2
2017-Aug-12 22:30N 48°08' W 123°27'0 0.1
2017-Aug-12 22:01N 48°08' W 123°27'0 0.2
2017-Aug-12 21:30N 48°08' W 123°27'0 0.3
2017-Aug-12 21:01N 48°08' W 123°27'0 0.1
2017-Aug-12 20:30N 48°08' W 123°27'0 0.3
2017-Aug-12 20:00N 48°08' W 123°27'0 0.1
2017-Aug-12 19:30N 48°08' W 123°27'0 0.3
2017-Aug-12 19:00N 48°08' W 123°28'1 2.7
2017-Aug-12 18:30N 48°08' W 123°26'4 7.3
2017-Aug-12 18:00N 48°08' W 123°20'4 7.8
2017-Aug-12 17:31N 48°09' W 123°14'4 7.8
2017-Aug-12 17:00N 48°11' W 123°09'3 6.6
2017-Aug-12 16:29N 48°11' W 123°04'4 7.1
2017-Aug-12 15:58N 48°10' W 122°59'3 7.0
2017-Aug-12 15:29N 48°09' W 122°54'14 7.4
2017-Aug-12 13:32N 47°60' W 122°38'0 3.1
2017-Aug-12 13:24N 47°59' W 122°37'0 0.2
2017-Aug-12 12:51N 47°59' W 122°37'2 6.2
2017-Aug-12 12:30N 47°57' W 122°36'3 6.4
2017-Aug-12 12:00N 47°55' W 122°32'3 6.9
2017-Aug-12 11:30N 47°54' W 122°28'4 7.1
2017-Aug-12 11:00N 47°53' W 122°23'4 8.0
2017-Aug-12 10:30N 47°57' W 122°20'4 7.1
2017-Aug-12 10:00N 47°58' W 122°15'1 2.5
2017-Aug-12 09:30N 47°59' W 122°13'4 7.8
2017-Aug-12 09:00N 47°57' W 122°18'5 9.1
2017-Aug-12 08:30N 47°54' W 122°22'4 8.8
2017-Aug-12 08:00N 47°54' W 122°29'4 8.4
2017-Aug-12 07:29N 47°57' W 122°34'11 7.4
2017-Aug-12 06:00N 48°06' W 122°43'4 3.2
2017-Aug-12 04:52N 48°05' W 122°48'0 0.3
2017-Aug-12 04:17N 48°05' W 122°48'1 1.9
2017-Aug-12 03:59N 48°05' W 122°47'4 5.1
2017-Aug-12 03:18N 48°07' W 122°42'8 6.2
2017-Aug-12 02:03N 47°59' W 122°38'0 4.6
2017-Aug-12 01:59N 47°59' W 122°38'2 4.8
2017-Aug-12 01:30N 47°58' W 122°35'2 4.6
2017-Aug-12 01:00N 47°57' W 122°32'3 5.7
2017-Aug-12 00:30N 47°55' W 122°28'3 5.2
2017-Aug-12 00:00N 47°54' W 122°25'3 5.5
2017-Aug-11 23:30N 47°55' W 122°22'3 7.0
2017-Aug-11 23:00N 47°58' W 122°19'3 6.3
2017-Aug-11 22:30N 47°59' W 122°15'1 2.3
2017-Aug-11 22:00N 47°59' W 122°13'0 0.2
2017-Aug-11 21:30N 47°59' W 122°13'1 1.7
2017-Aug-11 21:00N 47°58' W 122°14'1 2.4
2017-Aug-11 20:30N 47°58' W 122°16'1 2.7
2017-Aug-11 20:00N 47°58' W 122°18'1 2.4
2017-Aug-11 19:30N 47°57' W 122°19'1 2.3
2017-Aug-11 19:00N 47°56' W 122°20'1 2.2
2017-Aug-11 18:30N 47°55' W 122°20'1 2.1
2017-Aug-11 18:00N 47°54' W 122°21'1 1.9
2017-Aug-11 17:30N 47°53' W 122°22'1 2.0
2017-Aug-11 17:00N 47°52' W 122°22'1 2.5
2017-Aug-11 16:30N 47°51' W 122°23'1 2.7
2017-Aug-11 16:00N 47°50' W 122°24'2 3.3
2017-Aug-11 15:30N 47°48' W 122°25'2 3.1
2017-Aug-11 15:00N 47°47' W 122°25'1 2.7
2017-Aug-11 14:30N 47°45' W 122°25'3 2.5
2017-Aug-11 13:30N 47°43' W 122°26'1 2.6
2017-Aug-11 13:00N 47°42' W 122°28'1 2.6
2017-Aug-11 12:30N 47°41' W 122°29'1 2.7
2017-Aug-11 12:00N 47°40' W 122°29'1 2.7
2017-Aug-11 11:30N 47°38' W 122°29'1 2.8
2017-Aug-11 11:01N 47°37' W 122°29'1 2.6
2017-Aug-11 10:30N 47°36' W 122°28'1 2.7
2017-Aug-11 10:00N 47°34' W 122°28'1 2.7
2017-Aug-11 09:30N 47°33' W 122°28'2 3.3
2017-Aug-11 09:00N 47°31' W 122°29'2 4.1
2017-Aug-11 08:30N 47°30' W 122°30'2 4.0
2017-Aug-11 08:00N 47°28' W 122°31'2 4.0
2017-Aug-11 07:30N 47°26' W 122°31'2 4.1
2017-Aug-11 07:00N 47°24' W 122°32'2 3.9
2017-Aug-11 06:30N 47°22' W 122°32'2 3.8
2017-Aug-11 06:00N 47°20' W 122°33'3 5.0
2017-Aug-11 05:27N 47°17' W 122°32'3 5.5
2017-Aug-11 05:00N 47°15' W 122°34'3 4.0
2017-Aug-11 04:23N 47°13' W 122°36'3 2.9
2017-Aug-11 03:18N 47°14' W 122°40'1 0.2
2017-Aug-10 21:23N 47°14' W 122°39'1 2.6
2017-Aug-10 20:54N 47°12' W 122°38'6 2.9
2017-Aug-10 18:42N 47°10' W 122°47'1 4.1
2017-Aug-10 18:30N 47°11' W 122°48'8 1.8
2017-Aug-10 14:09N 47°05' W 122°55'1 1.4
2017-Aug-10 13:17N 47°06' W 122°55'12 0.9
2017-Aug-09 23:56N 47°11' W 122°39'1 2.0
2017-Aug-09 23:29N 47°12' W 122°38'1 2.1
2017-Aug-09 23:00N 47°12' W 122°37'2 3.3
2017-Aug-09 22:30N 47°13' W 122°35'2 4.2
2017-Aug-09 22:00N 47°15' W 122°34'2 4.5
2017-Aug-09 21:29N 47°17' W 122°32'1 2.7
2017-Aug-09 21:00N 47°18' W 122°33'1 1.5
2017-Aug-09 20:30N 47°19' W 122°33'1 2.0
2017-Aug-09 20:00N 47°19' W 122°32'1 1.3
2017-Aug-09 19:30N 47°19' W 122°31'1 1.3
2017-Aug-09 19:00N 47°19' W 122°30'1 1.5
2017-Aug-09 18:30N 47°19' W 122°29'1 1.2
2017-Aug-09 18:00N 47°19' W 122°28'1 1.2
2017-Aug-09 17:30N 47°20' W 122°28'1 1.1
2017-Aug-09 17:00N 47°20' W 122°27'0 0.8
2017-Aug-09 16:30N 47°21' W 122°27'0 0.8
2017-Aug-09 16:00N 47°21' W 122°27'0 0.9
2017-Aug-09 15:30N 47°21' W 122°26'1 1.1
2017-Aug-09 15:00N 47°22' W 122°25'1 1.1
2017-Aug-09 14:30N 47°22' W 122°25'1 1.1
2017-Aug-09 14:00N 47°22' W 122°24'1 1.1
2017-Aug-09 13:30N 47°22' W 122°23'1 1.1
2017-Aug-09 13:00N 47°23' W 122°23'1 1.5
2017-Aug-09 12:30N 47°23' W 122°22'1 1.4
2017-Aug-09 12:00N 47°24' W 122°23'1 1.3
2017-Aug-09 11:30N 47°24' W 122°23'1 1.5
2017-Aug-09 11:00N 47°25' W 122°24'1 1.6
2017-Aug-09 10:30N 47°25' W 122°25'1 1.4
2017-Aug-09 10:00N 47°26' W 122°25'1 1.5
2017-Aug-09 09:30N 47°27' W 122°26'1 1.8
2017-Aug-09 09:00N 47°28' W 122°26'1 1.2
2017-Aug-09 08:30N 47°28' W 122°26'1 1.3
2017-Aug-09 08:00N 47°29' W 122°26'0 1.0
2017-Aug-09 07:30N 47°29' W 122°26'1 1.1
2017-Aug-09 07:00N 47°30' W 122°27'1 1.9
2017-Aug-09 06:30N 47°31' W 122°27'1 1.5
2017-Aug-09 06:00N 47°31' W 122°28'0 0.7
2017-Aug-09 05:30N 47°32' W 122°28'1 1.0
2017-Aug-09 05:00N 47°32' W 122°28'1 1.2
2017-Aug-09 04:30N 47°33' W 122°28'1 1.3
2017-Aug-09 04:00N 47°33' W 122°28'1 1.4
2017-Aug-09 03:30N 47°34' W 122°28'1 1.5
2017-Aug-09 03:00N 47°35' W 122°28'1 1.5
2017-Aug-09 02:30N 47°36' W 122°28'1 1.5
2017-Aug-09 02:00N 47°36' W 122°29'1 1.4
2017-Aug-09 01:30N 47°37' W 122°29'1 1.6
2017-Aug-09 01:00N 47°38' W 122°29'1 1.3
2017-Aug-09 00:30N 47°39' W 122°29'1 1.6
2017-Aug-09 00:00N 47°39' W 122°29'1 1.8
2017-Aug-08 23:30N 47°40' W 122°29'1 1.8
2017-Aug-08 23:00N 47°41' W 122°29'1 1.9
2017-Aug-08 22:30N 47°42' W 122°29'1 2.1
2017-Aug-08 22:00N 47°43' W 122°29'1 2.2
2017-Aug-08 21:30N 47°44' W 122°28'1 2.0
2017-Aug-08 21:00N 47°45' W 122°27'1 1.5
2017-Aug-08 20:30N 47°45' W 122°26'1 1.4
2017-Aug-08 20:00N 47°46' W 122°25'1 1.2
2017-Aug-08 19:30N 47°46' W 122°25'1 1.0
2017-Aug-08 19:00N 47°47' W 122°25'0 0.6
2017-Aug-08 18:30N 47°47' W 122°25'0 0.4
2017-Aug-08 18:00N 47°47' W 122°25'0 0.5
2017-Aug-08 17:30N 47°47' W 122°25'0 0.4
2017-Aug-08 17:00N 47°48' W 122°25'0 0.8
2017-Aug-08 16:30N 47°48' W 122°25'1 1.4
2017-Aug-08 16:00N 47°49' W 122°25'1 1.3
2017-Aug-08 15:30N 47°49' W 122°24'1 1.3
2017-Aug-08 15:00N 47°50' W 122°24'1 1.4
2017-Aug-08 14:30N 47°50' W 122°23'1 1.5
2017-Aug-08 14:00N 47°51' W 122°22'1 1.6
2017-Aug-08 13:30N 47°52' W 122°22'1 1.8
2017-Aug-08 13:00N 47°53' W 122°21'1 2.0
2017-Aug-08 12:30N 47°54' W 122°21'1 1.9
2017-Aug-08 12:00N 47°55' W 122°21'1 1.7
2017-Aug-08 11:30N 47°55' W 122°20'1 1.8
2017-Aug-08 11:00N 47°56' W 122°20'1 2.0
2017-Aug-08 10:30N 47°57' W 122°19'1 1.7
2017-Aug-08 10:00N 47°58' W 122°18'1 1.7
2017-Aug-08 09:28N 47°58' W 122°17'1 1.5
2017-Aug-08 09:00N 47°58' W 122°16'1 1.5
2017-Aug-08 08:30N 47°58' W 122°15'0 0.2
2017-Aug-08 08:00N 47°58' W 122°15'0 0.2
2017-Aug-08 07:29N 47°58' W 122°15'0 0.2
2017-Aug-08 07:00N 47°58' W 122°15'0 0.2
2017-Aug-08 06:30N 47°58' W 122°15'1 1.5
2017-Aug-08 06:00N 47°58' W 122°16'0 0.8
2017-Aug-08 05:30N 47°58' W 122°16'1 1.1
2017-Aug-08 05:00N 47°59' W 122°16'1 1.4
2017-Aug-08 04:30N 47°60' W 122°17'1 2.1
2017-Aug-08 04:00N 48°01' W 122°17'1 2.3
2017-Aug-08 03:30N 48°02' W 122°18'1 2.3
2017-Aug-08 02:54N 48°02' W 122°20'1 2.3
2017-Aug-08 02:29N 48°03' W 122°22'1 2.2
2017-Aug-08 02:00N 48°03' W 122°23'1 2.0
2017-Aug-08 01:28N 48°04' W 122°24'1 2.0
2017-Aug-08 00:59N 48°04' W 122°25'3 1.8
2017-Aug-07 23:20N 48°06' W 122°29'1 1.6
2017-Aug-07 22:53N 48°07' W 122°30'8 1.7
2017-Aug-07 18:06N 48°15' W 122°33'0 2.3
2017-Aug-07 18:00N 48°15' W 122°33'1 2.6
2017-Aug-07 17:30N 48°16' W 122°32'1 2.6
2017-Aug-07 16:59N 48°17' W 122°31'1 2.6
2017-Aug-07 16:27N 48°18' W 122°30'1 2.5
2017-Aug-07 15:57N 48°19' W 122°31'1 2.1
2017-Aug-07 15:22N 48°20' W 122°32'1 2.0
2017-Aug-07 14:57N 48°21' W 122°33'1 1.5
2017-Aug-07 14:30N 48°21' W 122°33'1 1.4
2017-Aug-07 13:59N 48°22' W 122°33'1 1.3
2017-Aug-07 13:30N 48°22' W 122°32'0 0.1
2017-Aug-07 13:00N 48°22' W 122°32'0 0.0
2017-Aug-07 12:27N 48°22' W 122°32'0 0.0
2017-Aug-07 12:00N 48°22' W 122°32'0 0.0
2017-Aug-07 11:30N 48°22' W 122°32'2 0.2
2017-Aug-07 01:46N 48°24' W 122°30'  

Dump ship's entire track history